Yuma, AZ

4:33 PM MST on September 01, 2015 (GMT -0700)
APRSWXNET | | Change Station
CLOSE
Current Station
Personal Weather Station
Location: Yuma, AZ
Elevation: 125 ft
Nearby Weather Stations

Elev 125 ft 32.72 °N, 114.65 °W | Updated 21 minutes ago

Mostly Cloudy
Mostly Cloudy
101 °F
Feels Like 102 °F
N
6
Wind Variable Wind from SSE
Gusts 8.0 mph

Today
High -- | Low -- °F
--% Chance of Precip.
Yesterday
High -- | Low -- °F
Precip. -- in
6:13 AM 7:03 PM
Waning Gibbous, 85% visible
Pressure 29.74 in
Visibility 10.0 miles
Clouds Few 4000 ft
Scattered Clouds 20000 ft
Mostly Cloudy 25000 ft
Heat Index 102 °F
Dew Point 61 °F
Humidity 27%
Rainfall in
Snow Depth Not available.
UV 3 out of 12
Pollen 6.90 out of 12
Air Quality Not available.
Flu Activity Not available.
METAR KNYL 012257Z 18012G19KT 10SM FEW040 SCT200 BKN250 39/12 A2975 RMK AO2 SLP069 T03940122
Pressure 29.74 in
Visibility 10.0 miles
Clouds Few 4000 ft
Scattered Clouds 20000 ft
Mostly Cloudy 25000 ft
Heat Index 102 °F
Dew Point 61 °F
Humidity 27%
Rainfall in
Snow Depth Not available.
UV 3 out of 12
Pollen 6.90 out of 12
Air Quality Not available.
Flu Activity Not available.
METAR KNYL 012257Z 18012G19KT 10SM FEW040 SCT200 BKN250 39/12 A2975 RMK AO2 SLP069 T03940122

10-Day Weather Forecast

×

Almanac

Astronomy

Sep. 01, 2015 Rise Set
Actual Time
Civil Twilight
Nautical Twilight
Astronomical Twilight
Moon
Length of Visible Light
Length of Day
Tomorrow will be .
, % of the Moon is Illuminated

Today's Extremes

State Highs State Lows

Community

WunderPhotos

Upload Photos

1,851,643 photos uploaded!

WunderBlogs® & News

Nearby

Air Quality

  Air Quality AQ Index Pollutant
Not available.

Snow Depth

Station Depth Elevation

Earthquake Activity

City Distance Mag. Time & Date
Minimum magnitude displayed is 2.5.

Coastal Water Temperatures

Place Temperature

Stations

Nearby Weather Stations

Station Location Temp. Windchill Dew Point Humidity Wind Precip. Elev Updated Type